Time;durP1;ratioP1;P1;durP2;ratioP2;P2;SDS_P1;SDS_P2;PMS_P1;PMS_P2;Temp;Humidity;BMP_temperature;BMP_pressure;BME280_temperature;BME280_humidity;BME280_pressure;Samples;Min_cycle;Max_cycle;Signal;HPM_P1;HPM_P2
2022/08/02 00:01:06;;;;;;;4.30;3.87;;;18.30;99.90;;;18.49;72.90;101259.56;5044196;28;20494;-71
2022/08/02 00:03:35;;;;;;;4.70;3.70;;;18.40;99.90;;;18.36;73.28;101266.16;5045249;28;20425;-72
2022/08/02 00:06:06;;;;;;;8.20;3.00;;;18.30;99.90;;;18.39;73.28;101264.88;5049169;28;20434;-73
2022/08/02 00:08:35;;;;;;;5.80;3.00;;;18.30;99.90;;;18.33;73.66;101272.16;5043837;28;20458;-71
2022/08/02 00:11:04;;;;;;;2.67;2.47;;;18.20;99.90;;;18.27;73.82;101270.38;5048418;28;20445;-70
2022/08/02 00:13:33;;;;;;;4.47;3.60;;;18.20;99.90;;;18.38;73.54;101269.50;5047050;28;20442;-70
2022/08/02 00:16:02;;;;;;;3.90;3.50;;;18.20;99.90;;;18.42;73.70;101275.31;5046488;28;20464;-70
2022/08/02 00:18:32;;;;;;;5.00;3.37;;;18.30;99.90;;;18.48;73.29;101272.44;5050843;28;20462;-71
2022/08/02 00:21:01;;;;;;;2.57;2.33;;;18.30;99.90;;;18.47;73.19;101279.00;5044580;28;20452;-71
2022/08/02 00:23:31;;;;;;;4.37;3.80;;;18.30;99.90;;;18.41;73.25;101277.22;5047506;28;20443;-71
2022/08/02 00:26:20;;;;;;;4.63;3.23;;;18.30;99.90;;;18.52;72.92;101276.34;5048648;28;20599;-71
2022/08/02 00:28:49;;;;;;;3.57;2.83;;;18.40;99.90;;;18.38;73.21;101274.97;5044566;28;20442;-70
2022/08/02 00:31:18;;;;;;;3.30;2.90;;;18.30;99.90;;;18.43;72.75;101271.50;5049849;28;20471;-70
2022/08/02 00:33:47;;;;;;;2.97;2.67;;;18.30;99.90;;;18.35;72.77;101263.69;5048078;28;20493;-71
2022/08/02 00:36:37;;;;;;;2.60;2.40;;;18.30;99.90;;;18.33;72.64;101268.56;5049336;28;20435;-70
2022/08/02 00:39:07;;;;;;;4.67;2.97;;;18.20;99.90;;;18.39;71.99;101264.88;5046813;28;20444;-71
2022/08/02 00:41:56;;;;;;;3.00;2.33;;;18.30;99.90;;;18.40;71.72;101267.34;5047419;28;20471;-71
2022/08/02 00:44:26;;;;;;;4.80;3.00;;;18.30;99.90;;;18.33;71.72;101261.19;5047747;28;20459;-71
2022/08/02 00:46:56;;;;;;;8.43;3.53;;;18.20;99.90;;;18.35;71.58;101263.69;5052609;28;20446;-71
2022/08/02 00:49:25;;;;;;;3.10;2.73;;;18.20;99.90;;;18.53;70.11;101267.09;5033645;28;20421;-72
2022/08/02 00:51:54;;;;;;;4.77;2.90;;;18.30;99.90;;;18.47;69.20;101268.03;5042512;28;20570;-70
2022/08/02 00:54:25;;;;;;;3.80;2.47;;;18.30;99.90;;;18.53;69.29;101263.47;5051326;28;20658;-71
2022/08/02 00:56:54;;;;;;;4.63;2.63;;;18.40;99.90;;;18.53;69.41;101269.84;5053633;28;20420;-71
2022/08/02 00:59:23;;;;;;;3.33;3.00;;;18.40;99.90;;;18.52;69.53;101270.03;5055623;28;20481;-71
2022/08/02 01:01:54;;;;;;;2.53;2.33;;;18.40;99.90;;;18.47;69.47;101278.16;5046817;28;20434;-71
2022/08/02 01:04:27;;;;;;;5.63;2.73;;;18.40;99.90;;;18.41;70.01;101277.22;5046188;28;20541;-71
2022/08/02 01:06:59;;;;;;;3.47;2.60;;;18.30;99.90;;;18.48;69.27;101283.41;5047410;28;20500;-71
2022/08/02 01:09:30;;;;;;;2.90;2.37;;;18.40;99.90;;;18.47;69.53;101284.47;5042784;28;20418;-71
2022/08/02 01:11:59;;;;;;;3.20;2.27;;;18.30;99.90;;;18.45;69.48;101277.56;5053021;28;20523;-72
2022/08/02 01:14:31;;;;;;;4.13;2.63;;;18.30;99.90;;;18.39;69.53;101275.81;5049045;28;20960;-72
2022/08/02 01:17:07;;;;;;;2.50;2.30;;;18.30;99.90;;;18.40;69.31;101281.03;5054005;28;20410;-71
2022/08/02 01:19:51;;;;;;;3.13;2.40;;;18.20;99.90;;;18.31;69.60;101284.41;5046448;28;20455;-70
2022/08/02 01:23:08;;;;;;;3.17;2.33;;;18.20;99.90;;;18.21;69.98;101290.50;5049698;28;20923;-70
2022/08/02 01:26:03;;;;;;;5.40;3.20;;;18.10;99.90;;;18.21;69.81;101285.03;5054403;28;20435;-71
2022/08/02 01:28:40;;;;;;;5.77;3.20;;;18.10;99.90;;;18.23;69.76;101285.63;5044071;28;20410;-71
2022/08/02 01:31:22;;;;;;;2.97;2.67;;;18.10;99.90;;;18.20;70.01;101288.88;5042982;28;20449;-71
2022/08/02 01:34:02;;;;;;;3.73;2.10;;;18.10;99.90;;;18.28;69.23;101290.38;5052386;28;20484;-71
2022/08/02 01:36:38;;;;;;;5.77;2.50;;;18.10;99.90;;;18.16;69.76;101298.63;5044841;28;20436;-72
2022/08/02 01:39:15;;;;;;;2.70;2.30;;;18.10;99.90;;;18.17;70.04;101290.19;5055155;28;20927;-71
2022/08/02 01:42:03;;;;;;;3.03;2.83;;;18.10;99.90;;;18.18;70.09;101299.22;5051373;28;20413;-71
2022/08/02 01:44:38;;;;;;;4.60;3.17;;;18.10;99.90;;;18.10;69.63;101299.63;5049675;28;20416;-72
2022/08/02 01:47:14;;;;;;;8.10;2.60;;;18.00;99.90;;;18.14;69.30;101295.31;5050036;28;20488;-71
2022/08/02 01:49:48;;;;;;;4.63;3.37;;;18.00;99.90;;;18.09;69.76;101292.47;5049189;28;20569;-72
2022/08/02 01:52:21;;;;;;;5.53;2.57;;;18.00;99.90;;;18.19;69.02;101289.94;5045561;28;20982;-71
2022/08/02 01:54:58;;;;;;;5.50;3.13;;;18.00;99.90;;;18.24;69.16;101290.88;5047032;28;20521;-71
2022/08/02 01:57:34;;;;;;;4.60;2.80;;;18.00;99.90;;;18.25;68.98;101292.53;5047146;28;20938;-72
2022/08/02 02:00:13;;;;;;;5.70;2.93;;;18.10;99.90;;;18.11;69.16;101293.03;5051684;28;20460;-72
2022/08/02 02:25:57;;;;;;;5.03;3.07;;;18.10;99.90;;;18.27;67.68;101294.19;5045354;28;20806;-71
2022/08/02 02:28:30;;;;;;;3.90;3.13;;;18.20;99.90;;;18.23;68.08;101296.59;5045957;28;20440;-72
2022/08/02 02:31:06;;;;;;;4.60;3.00;;;18.20;99.90;;;18.17;68.02;101298.41;5029075;28;20864;-72
2022/08/02 02:33:41;;;;;;;3.43;3.10;;;18.10;99.90;;;18.17;67.98;101278.38;5038621;28;20771;-71
2022/08/02 02:36:13;;;;;;;3.70;3.03;;;18.10;99.90;;;18.17;68.84;101290.19;5040644;28;20903;-72
2022/08/02 02:38:44;;;;;;;7.93;3.20;;;18.10;99.90;;;18.20;69.19;101294.34;5050561;28;20811;-72
2022/08/02 02:41:16;;;;;;;4.77;2.80;;;18.00;99.90;;;18.13;69.96;101297.22;5046616;28;20480;-72
2022/08/02 02:43:46;;;;;;;6.23;3.23;;;18.00;99.90;;;18.34;68.93;101297.63;5039970;28;21119;-71
2022/08/02 02:46:20;;;;;;;2.50;2.30;;;18.10;99.90;;;18.31;68.84;101296.19;5049391;28;20459;-71
2022/08/02 02:48:51;;;;;;;5.50;2.20;;;18.10;99.90;;;17.96;69.60;101293.56;5040634;28;20504;-71
2022/08/02 02:51:22;;;;;;;3.57;3.20;;;17.90;99.90;;;17.96;69.40;101304.50;5040301;28;20493;-71
2022/08/02 02:53:52;;;;;;;12.50;3.40;;;17.80;99.90;;;18.03;69.15;101298.91;5052689;28;20962;-71
2022/08/02 02:56:45;;;;;;;4.57;3.27;;;17.90;99.90;;;17.97;68.99;101305.34;5052830;28;20449;-72
2022/08/02 02:59:15;;;;;;;2.83;2.33;;;17.80;99.90;;;17.97;69.01;101310.81;5051971;28;20901;-70
2022/08/02 03:01:44;;;;;;;4.00;2.23;;;17.80;99.90;;;17.84;69.67;101302.88;5040112;28;20451;-72
2022/08/02 03:04:27;;;;;;;4.87;3.00;;;17.70;99.90;;;17.93;68.88;101304.16;5051652;28;20875;-72
2022/08/02 03:07:16;;;;;;;6.40;2.40;;;17.80;99.90;;;17.63;70.04;101304.31;5053643;28;20418;-71
2022/08/02 03:09:45;;;;;;;3.43;2.57;;;17.60;99.90;;;17.46;70.32;101309.66;5048189;28;20422;-71
2022/08/02 03:12:26;;;;;;;4.00;2.63;;;17.50;99.90;;;17.39;70.37;101317.97;5054980;28;20558;-71
2022/08/02 03:15:01;;;;;;;2.90;2.60;;;17.40;99.90;;;17.29;71.01;101319.59;5048914;28;20471;-72
2022/08/02 03:17:40;;;;;;;2.73;2.40;;;17.30;99.90;;;17.23;71.33;101315.09;5043937;28;20434;-72
2022/08/02 03:20:13;;;;;;;3.53;3.20;;;17.30;99.90;;;17.13;72.07;101315.69;5048398;28;20892;-71
2022/08/02 03:22:44;;;;;;;3.83;3.20;;;17.20;99.90;;;17.08;72.68;101320.19;5050785;28;20465;-71
2022/08/02 03:25:14;;;;;;;3.70;2.20;;;17.10;99.90;;;17.11;72.80;101316.97;5048426;28;20422;-71
2022/08/02 03:27:45;;;;;;;3.27;2.97;;;17.10;99.90;;;17.12;72.82;101311.28;5055886;28;20780;-71
2022/08/02 03:30:15;;;;;;;6.87;2.90;;;17.10;99.90;;;17.10;73.08;101315.31;5052373;28;20410;-72
2022/08/02 03:32:47;;;;;;;3.23;2.93;;;17.00;99.90;;;16.97;73.59;101321.81;5046507;28;20457;-71
2022/08/02 03:35:19;;;;;;;4.53;2.87;;;17.00;99.90;;;17.12;73.82;101314.00;5050161;28;20530;-72
2022/08/02 03:37:55;;;;;;;8.63;3.30;;;17.00;99.90;;;17.09;73.52;101321.88;5055243;28;20823;-72
2022/08/02 03:40:27;;;;;;;4.27;3.10;;;17.00;99.90;;;17.03;73.59;101314.59;5046467;28;20698;-70
2022/08/02 03:42:59;;;;;;;6.67;3.17;;;17.00;99.90;;;17.02;73.71;101318.38;5040218;28;20441;-72
2022/08/02 03:45:29;;;;;;;3.30;2.80;;;17.00;99.90;;;17.01;73.88;101327.66;5051123;28;21062;-70
2022/08/02 03:47:59;;;;;;;6.40;3.30;;;16.90;99.90;;;17.02;73.79;101321.97;5035481;28;20446;-71
2022/08/02 03:50:28;;;;;;;6.13;3.53;;;16.90;99.90;;;17.06;73.99;101330.50;5044321;28;20981;-71
2022/08/02 03:52:58;;;;;;;5.13;3.47;;;17.00;99.90;;;17.44;73.09;101333.66;5041861;28;20491;-71
2022/08/02 03:55:27;;;;;;;4.47;2.70;;;17.10;99.90;;;17.88;70.93;101324.06;5046763;28;20470;-72
2022/08/02 03:57:58;;;;;;;5.97;2.70;;;17.30;99.90;;;18.07;70.16;101327.47;5047360;28;20896;-71
2022/08/02 04:00:27;;;;;;;7.10;3.00;;;17.50;99.90;;;18.28;69.72;101335.06;5055042;28;20907;-71
2022/08/02 04:02:56;;;;;;;4.23;3.20;;;17.70;99.90;;;18.53;68.84;101327.38;5043755;28;20451;-71
2022/08/02 04:05:25;;;;;;;6.93;3.10;;;17.90;99.90;;;18.77;67.93;101338.25;5050186;28;20502;-72
2022/08/02 04:07:56;;;;;;;4.03;2.67;;;18.20;99.90;;;18.88;67.19;101348.34;5035334;28;20450;-71
2022/08/02 04:13:35;;;;;;;4.00;2.83;;;18.10;99.90;;;18.12;68.25;101352.22;5049909;28;20484;-72
2022/08/02 04:16:12;;;;;;;5.73;3.10;;;18.00;99.90;;;17.86;68.95;101355.50;5055240;28;20421;-71
2022/08/02 04:18:51;;;;;;;5.43;3.40;;;17.80;99.90;;;17.60;70.13;101354.88;5046565;28;20452;-71
2022/08/02 04:21:24;;;;;;;3.93;2.80;;;17.60;99.90;;;17.57;70.67;101349.03;5043749;28;20452;-71
2022/08/02 04:23:56;;;;;;;6.43;3.40;;;17.50;99.90;;;17.52;70.94;101352.47;5031233;28;20445;-71
2022/08/02 04:26:28;;;;;;;3.77;3.47;;;17.50;99.90;;;17.48;71.50;101351.28;5049724;28;20414;-71
2022/08/02 04:29:00;;;;;;;4.33;2.87;;;17.40;99.90;;;17.38;72.36;101360.06;5045297;28;20923;-71
2022/08/02 04:31:30;;;;;;;3.93;2.90;;;17.30;99.90;;;17.38;72.36;101356.50;5047249;28;20922;-72
2022/08/02 04:34:00;;;;;;;3.50;3.10;;;17.30;99.90;;;17.56;72.26;101361.88;5046335;28;20453;-71
2022/08/02 04:36:30;;;;;;;6.93;3.67;;;17.30;99.90;;;17.72;71.69;101357.63;5048488;28;20936;-70
2022/08/02 04:38:59;;;;;;;3.03;2.73;;;17.40;99.90;;;18.08;71.09;101367.47;5056319;28;20416;-71
2022/08/02 04:41:42;;;;;;;8.17;4.00;;;17.60;99.90;;;19.62;65.87;101362.78;5067364;22;20490;-73
2022/08/02 04:44:14;;;;;;;6.20;4.80;;;18.10;99.90;;;21.26;60.17;101360.75;5047700;28;20821;-74
2022/08/02 04:46:45;;;;;;;8.60;5.50;;;18.90;99.90;;;22.55;55.66;101360.25;5048383;28;20449;-73
2022/08/02 04:49:14;;;;;;;7.00;5.13;;;19.80;93.50;;;22.51;55.72;101364.66;5043049;28;20955;-73
2022/08/02 04:51:43;;;;;;;10.13;5.67;;;20.40;80.80;;;22.92;54.60;101366.44;5042907;28;20867;-73
2022/08/02 04:54:13;;;;;;;7.73;6.23;;;20.90;64.20;;;23.61;52.92;101371.50;5045586;28;20460;-73
2022/08/02 04:56:42;;;;;;;13.00;6.60;;;21.10;58.20;;;23.83;51.75;101363.72;5041504;28;20422;-73
2022/08/02 04:59:12;;;;;;;10.20;5.50;;;21.40;51.20;;;24.15;50.34;101366.16;5046889;28;20442;-72
2022/08/02 05:01:42;;;;;;;8.50;5.47;;;21.20;47.70;;;24.46;49.69;101364.13;5047383;28;20583;-73
2022/08/02 05:04:11;;;;;;;5.57;4.00;;;21.60;45.30;;;24.92;47.76;101373.06;5045072;28;20466;-74
2022/08/02 05:06:40;;;;;;;7.30;5.00;;;22.30;37.50;;;25.79;45.80;101370.44;5047404;28;20456;-73
2022/08/02 05:09:09;;;;;;;7.13;4.43;;;22.70;32.30;;;25.67;46.23;101375.53;5044401;28;20422;-73
2022/08/02 05:11:38;;;;;;;11.83;5.00;;;23.00;28.60;;;26.17;44.78;101372.25;5050587;28;20453;-73
2022/08/02 05:14:07;;;;;;;6.27;3.30;;;23.20;26.50;;;26.37;43.69;101371.22;5054733;28;20553;-73
2022/08/02 05:16:37;;;;;;;9.90;5.43;;;23.30;23.50;;;26.65;43.33;101375.00;5048746;28;20470;-72
2022/08/02 05:19:06;;;;;;;13.40;4.50;;;23.30;23.30;;;26.25;43.92;101377.16;5057541;28;20434;-73
2022/08/02 05:21:34;;;;;;;10.73;5.07;;;23.40;22.20;;;26.21;43.87;101367.78;5055376;28;20445;-73
2022/08/02 05:24:03;;;;;;;5.60;4.00;;;23.10;22.30;;;26.46;43.22;101374.16;5050849;28;20509;-74
2022/08/02 05:26:32;;;;;;;7.30;4.70;;;23.40;21.20;;;26.67;42.91;101379.16;5042367;28;20442;-74
2022/08/02 05:29:02;;;;;;;9.20;4.90;;;23.10;21.00;;;26.81;42.79;101376.47;5050270;28;20440;-72
2022/08/02 05:31:31;;;;;;;7.00;4.30;;;22.80;21.50;;;25.76;43.59;101376.56;5044949;28;20877;-73
2022/08/02 05:34:01;;;;;;;8.83;4.87;;;22.70;20.60;;;24.23;46.48;101386.88;5047481;28;20467;-73
2022/08/02 05:36:30;;;;;;;7.43;3.80;;;22.70;20.40;;;22.63;51.01;101381.78;5048143;28;20481;-74
2022/08/02 05:38:59;;;;;;;10.43;4.90;;;21.90;22.90;;;21.99;52.72;101387.53;5045688;28;20482;-72
2022/08/02 05:41:33;;;;;;;5.57;3.60;;;21.40;25.00;;;21.62;53.69;101397.69;5043368;28;20458;-72
2022/08/02 05:44:03;;;;;;;4.90;3.60;;;21.00;26.40;;;21.23;55.16;101389.66;5043693;28;20541;-73
2022/08/02 05:46:31;;;;;;;7.73;3.80;;;20.50;29.60;;;20.93;56.63;101388.47;5051182;28;20502;-72
2022/08/02 05:49:03;;;;;;;11.30;4.80;;;20.40;33.20;;;20.83;56.97;101397.44;5047828;28;20451;-72
2022/08/02 05:51:38;;;;;;;5.40;3.80;;;20.30;35.30;;;20.82;56.42;101398.53;5048394;28;20416;-73
2022/08/02 05:54:22;;;;;;;7.70;3.40;;;20.10;35.20;;;20.78;55.26;101400.13;5048916;28;20477;-73
2022/08/02 05:56:56;;;;;;;8.70;4.20;;;20.10;33.60;;;20.97;54.02;101408.88;5021787;28;20480;-74
2022/08/02 05:59:35;;;;;;;4.57;2.90;;;20.20;31.80;;;20.97;53.24;101412.44;5044202;28;20644;-73
2022/08/02 06:02:25;;;;;;;6.87;2.87;;;20.30;29.00;;;20.87;52.52;101409.59;5049535;28;20442;-72
2022/08/02 06:05:08;;;;;;;5.30;2.57;;;20.20;27.50;;;21.00;53.04;101409.22;5047262;28;20434;-72
2022/08/02 06:07:40;;;;;;;6.87;3.13;;;20.30;28.40;;;21.21;52.75;101413.00;5047131;28;20512;-72
2022/08/02 06:10:12;;;;;;;5.97;3.17;;;20.50;28.50;;;21.24;53.40;101415.25;5049046;28;20439;-72
2022/08/02 06:12:48;;;;;;;5.20;3.00;;;20.60;28.40;;;21.36;52.57;101406.81;5046320;28;20458;-71
2022/08/02 06:15:20;;;;;;;8.47;3.10;;;20.70;27.50;;;21.62;52.01;101417.81;5047125;28;20858;-73
2022/08/02 06:17:48;;;;;;;4.77;3.07;;;20.90;27.60;;;21.64;52.17;101410.09;5044035;28;20977;-73
2022/08/02 06:20:21;;;;;;;5.97;2.60;;;21.10;25.60;;;21.64;50.58;101412.84;5051024;28;20742;-74
2022/08/02 06:22:52;;;;;;;5.80;2.00;;;21.10;23.10;;;21.74;51.54;101414.84;5050890;28;20466;-72
2022/08/02 06:25:23;;;;;;;6.87;4.57;;;21.00;24.10;;;21.90;50.75;101408.38;5047598;28;20512;-72
2022/08/02 06:28:16;;;;;;;5.07;2.37;;;21.30;24.70;;;22.00;49.14;101414.00;5048462;28;20463;-72
2022/08/02 06:30:45;;;;;;;7.87;3.70;;;21.50;20.60;;;22.13;48.63;101414.59;5050377;28;20417;-72
2022/08/02 06:33:14;;;;;;;9.00;4.30;;;21.70;20.00;;;22.25;48.73;101410.56;5047836;28;20859;-73
2022/08/02 06:35:50;;;;;;;7.23;2.70;;;21.70;19.50;;;22.09;48.06;101406.88;5055697;28;20554;-71
2022/08/02 06:38:24;;;;;;;6.37;3.70;;;21.70;17.80;;;22.08;48.51;101416.25;5047637;28;20405;-72
2022/08/02 06:41:01;;;;;;;7.63;2.00;;;21.60;18.90;;;22.24;48.55;101403.38;5048692;28;20671;-73
2022/08/02 06:43:45;;;;;;;5.00;1.97;;;21.80;18.10;;;22.28;48.21;101403.66;5051889;28;20826;-73
2022/08/02 06:46:14;;;;;;;3.80;1.87;;;21.70;17.80;;;22.21;47.83;101408.59;5046049;28;20413;-74
2022/08/02 06:49:04;;;;;;;4.93;1.80;;;21.60;17.20;;;22.57;47.02;101401.31;5051660;28;20534;-72
2022/08/02 06:51:35;;;;;;;2.83;2.37;;;22.00;17.20;;;22.73;46.54;101401.16;5047683;28;20421;-72
2022/08/02 06:54:04;;;;;;;5.70;1.80;;;22.10;15.60;;;22.91;46.12;101400.66;5049294;28;20470;-73
2022/08/02 06:56:33;;;;;;;2.90;1.73;;;22.30;14.80;;;23.12;45.57;101395.19;5048201;28;20414;-72
2022/08/02 06:59:02;;;;;;;4.10;1.57;;;22.50;14.30;;;23.27;45.46;101400.72;5050340;28;20504;-72
2022/08/02 07:01:33;;;;;;;6.50;1.93;;;22.60;13.80;;;23.35;45.02;101395.50;5048465;28;20420;-73
2022/08/02 07:04:07;;;;;;;2.83;2.20;;;22.70;13.40;;;23.39;44.37;101398.53;5048671;28;20528;-72
2022/08/02 07:06:37;;;;;;;2.60;1.90;;;22.80;11.90;;;23.40;44.20;101400.19;5051078;28;21022;-72
2022/08/02 07:09:06;;;;;;;2.67;2.30;;;22.80;11.40;;;23.37;44.62;101395.22;5048783;28;20783;-73
2022/08/02 07:11:49;;;;;;;8.00;2.30;;;22.90;11.10;;;23.14;44.93;101390.22;5050504;28;20420;-72
2022/08/02 07:14:17;;;;;;;11.87;1.90;;;22.80;11.00;;;22.81;45.39;101397.03;5049404;28;20753;-73
2022/08/02 07:16:46;;;;;;;3.30;1.77;;;22.70;11.10;;;22.63;46.47;101398.31;5050410;28;20406;-73
2022/08/02 07:19:15;;;;;;;3.30;2.30;;;22.30;12.20;;;22.78;46.38;101398.41;5044079;28;20421;-73
2022/08/02 07:21:45;;;;;;;4.27;2.33;;;22.40;12.20;;;22.92;46.21;101399.56;5046281;28;20546;-73
2022/08/02 07:24:29;;;;;;;3.20;1.70;;;22.50;12.20;;;22.86;45.88;101403.41;5048886;28;21063;-72
2022/08/02 07:26:58;;;;;;;3.97;2.30;;;22.50;11.70;;;22.80;46.16;101400.91;5045982;28;20482;-73
2022/08/02 07:29:39;;;;;;;3.60;2.00;;;22.40;11.80;;;23.11;45.31;101396.28;5040721;28;20494;-73
2022/08/02 07:32:15;;;;;;;4.57;1.93;;;22.50;11.70;;;23.30;44.83;101402.94;5048662;28;20430;-72
2022/08/02 07:34:44;;;;;;;5.60;2.00;;;22.70;11.20;;;23.21;44.25;101399.06;5050212;28;20467;-73
2022/08/02 07:37:22;;;;;;;3.60;2.10;;;22.90;9.60;;;22.78;45.09;101398.41;5045427;28;20497;-74
2022/08/02 07:40:14;;;;;;;4.10;2.30;;;22.70;9.80;;;22.80;45.61;101400.91;5049591;28;20495;-73
2022/08/02 07:42:50;;;;;;;9.53;2.67;;;22.60;10.20;;;23.08;44.97;101403.19;5045886;28;20433;-73
2022/08/02 07:45:21;;;;;;;10.93;2.80;;;22.70;10.20;;;23.01;45.17;101393.50;5044733;28;20431;-74
2022/08/02 07:47:52;;;;;;;4.53;2.10;;;22.60;9.90;;;23.20;44.76;101389.09;5054448;28;20443;-71
2022/08/02 07:50:22;;;;;;;4.70;1.90;;;22.80;9.90;;;23.12;44.71;101390.50;5050644;28;20447;-73
2022/08/02 07:52:53;;;;;;;4.53;2.30;;;22.80;9.30;;;23.25;44.21;101400.16;5059404;28;20462;-73
2022/08/02 07:55:26;;;;;;;6.20;2.77;;;23.00;8.80;;;22.87;44.76;101383.00;5053355;28;20666;-73
2022/08/02 07:58:08;;;;;;;5.90;1.77;;;22.80;9.00;;;22.85;44.82;101387.13;5051054;28;20450;-73
2022/08/02 08:00:42;;;;;;;2.47;1.70;;;22.70;8.20;;;22.53;44.91;101385.31;5053213;28;20431;-73
2022/08/02 08:03:11;;;;;;;3.03;1.90;;;22.50;8.00;;;22.61;45.54;101391.44;5045952;28;20472;-73
2022/08/02 08:05:40;;;;;;;3.90;1.90;;;22.50;8.90;;;22.91;45.04;101392.38;5052537;28;20431;-73
2022/08/02 08:08:11;;;;;;;4.40;1.90;;;22.60;9.30;;;22.98;45.15;101396.81;5050627;28;20919;-74
2022/08/02 08:10:45;;;;;;;2.73;1.87;;;22.70;9.40;;;23.39;44.79;101391.06;5044576;28;20987;-73
2022/08/02 08:13:14;;;;;;;6.90;1.70;;;23.00;9.30;;;23.52;43.36;101384.22;5046033;28;20525;-73
2022/08/02 08:15:44;;;;;;;4.43;2.43;;;23.20;7.50;;;23.36;44.04;101386.09;5018200;28;20479;-71
2022/08/02 08:18:21;;;;;;;5.07;2.17;;;23.20;8.00;;;23.54;43.51;101384.75;5048352;28;20439;-72
2022/08/02 08:20:50;;;;;;;6.80;2.27;;;23.30;7.60;;;23.36;43.57;101383.34;5048684;28;20405;-71
2022/08/02 08:23:21;;;;;;;6.23;2.13;;;23.30;6.90;;;23.13;44.64;101388.56;5047954;28;20463;-72
2022/08/02 08:25:49;;;;;;;3.23;1.57;;;23.00;7.60;;;23.05;43.76;101386.31;5042819;28;20435;-72
2022/08/02 08:28:18;;;;;;;3.33;1.80;;;22.90;6.90;;;23.08;43.92;101372.00;5048453;28;20470;-72
2022/08/02 08:30:48;;;;;;;4.13;2.00;;;22.80;6.90;;;23.40;44.15;101378.09;5051466;28;20434;-71
2022/08/02 08:33:17;;;;;;;2.80;2.13;;;23.10;7.80;;;23.70;43.50;101377.28;5031952;28;20510;-73
2022/08/02 08:35:45;;;;;;;6.67;4.33;;;23.30;7.20;;;23.70;42.90;101369.81;5052077;28;20448;-72
2022/08/02 08:38:15;;;;;;;7.67;2.03;;;23.40;6.20;;;23.47;43.55;101373.16;5049609;28;20482;-73
2022/08/02 08:40:46;;;;;;;3.93;1.90;;;23.30;6.50;;;23.56;43.22;101385.31;5044342;28;20421;-73
2022/08/02 08:43:15;;;;;;;4.37;3.10;;;23.30;6.10;;;23.95;42.77;101370.91;5045531;28;20469;-72
2022/08/02 08:45:45;;;;;;;5.70;2.47;;;23.60;6.40;;;24.00;43.02;101368.94;5045734;28;20798;-72
2022/08/02 08:48:25;;;;;;;4.23;2.30;;;23.70;6.30;;;24.07;42.20;101376.94;5048015;28;20494;-72
2022/08/02 08:51:11;;;;;;;4.53;1.90;;;23.70;5.80;;;24.16;41.87;101375.25;5057989;28;20853;-72
2022/08/02 08:53:44;;;;;;;2.90;2.00;;;23.90;4.90;;;23.74;42.40;101368.16;5042574;28;20434;-73
2022/08/02 08:56:16;;;;;;;6.63;2.73;;;23.60;4.90;;;23.89;42.39;101372.00;5046437;28;20475;-73
2022/08/02 08:58:47;;;;;;;6.50;1.93;;;23.60;5.00;;;23.93;42.70;101375.88;5051387;28;20439;-73
2022/08/02 09:01:16;;;;;;;3.23;1.67;;;23.70;5.50;;;23.57;43.36;101373.16;5052014;28;20435;-73
2022/08/02 09:03:46;;;;;;;5.07;2.20;;;23.50;5.40;;;23.65;43.28;101366.22;5045492;28;20675;-72
2022/08/02 09:06:15;;;;;;;7.33;5.33;;;23.50;5.70;;;23.79;43.26;101365.38;5044368;28;20493;-71
2022/08/02 09:08:44;;;;;;;7.10;2.10;;;23.50;6.00;;;23.37;43.85;101373.13;5041031;28;20451;-72
2022/08/02 09:11:18;;;;;;;3.60;2.30;;;23.30;5.50;;;23.55;43.85;101366.25;5051974;28;20665;-73
2022/08/02 09:13:52;;;;;;;3.40;1.60;;;23.30;6.40;;;23.80;43.17;101356.00;5048191;28;20506;-72
2022/08/02 09:16:34;;;;;;;3.63;2.03;;;23.50;5.90;;;23.95;42.80;101357.06;5048239;28;20851;-72
2022/08/02 09:19:19;;;;;;;2.40;1.73;;;23.60;5.30;;;24.00;42.91;101365.34;5047798;28;20481;-72
2022/08/02 09:21:50;;;;;;;3.50;1.80;;;23.70;5.30;;;24.40;42.06;101370.75;5046188;28;20508;-72
2022/08/02 09:24:22;;;;;;;1.80;1.40;;;23.90;5.00;;;24.43;42.00;101352.78;5044612;28;20493;-72
2022/08/02 09:26:52;;;;;;;2.17;1.73;;;24.10;4.60;;;24.72;41.80;101344.63;5046937;28;20417;-72
2022/08/02 09:29:24;;;;;;;4.77;3.30;;;24.40;4.50;;;25.20;41.29;101343.78;5050630;28;20608;-71
2022/08/02 09:32:03;;;;;;;5.03;2.73;;;24.70;4.50;;;25.30;40.99;101352.00;5048599;28;20492;-73
2022/08/02 09:34:46;;;;;;;5.47;1.90;;;25.00;4.20;;;25.17;41.00;101346.31;5052934;28;20436;-72
2022/08/02 09:37:26;;;;;;;7.03;2.30;;;25.00;2.90;;;25.42;40.62;101346.91;5049722;28;20485;-73
2022/08/02 09:39:58;;;;;;;3.40;1.80;;;25.10;3.00;;;25.88;40.09;101343.72;5050965;28;20446;-74
2022/08/02 09:42:29;;;;;;;3.27;1.50;;;25.40;2.70;;;26.10;38.83;101338.47;5045453;28;20550;-74
2022/08/02 09:45:01;;;;;;;3.43;3.13;;;25.60;1.70;;;26.08;39.21;101346.28;5048662;28;20443;-73
2022/08/02 09:47:32;;;;;;;3.60;2.30;;;25.70;1.40;;;26.28;38.92;101346.09;5054991;28;20449;-72
2022/08/02 09:50:06;;;;;;;7.20;2.37;;;25.80;1.30;;;26.05;39.12;101346.84;5051126;28;20488;-72
2022/08/02 09:52:42;;;;;;;3.73;1.50;;;25.80;1.00;;;26.21;38.83;101340.06;5046044;28;20870;-73
2022/08/02 09:55:13;;;;;;;5.23;2.03;;;25.70;1.00;;;25.69;39.42;101331.72;5050482;28;20832;-72
2022/08/02 09:57:43;;;;;;;1.90;1.70;;;25.60;1.00;;;25.33;39.91;101334.78;5052781;28;20514;-73
2022/08/02 10:00:20;;;;;;;3.00;1.77;;;25.30;1.00;;;25.94;39.50;101332.31;5050564;28;20481;-72
2022/08/02 10:03:10;;;;;;;3.60;1.83;;;25.50;1.30;;;26.06;38.77;101342.97;5047991;28;20528;-71
2022/08/02 10:05:52;;;;;;;3.37;2.57;;;25.70;1.00;;;25.85;39.22;101330.47;5045994;28;20457;-72
2022/08/02 10:08:25;;;;;;;3.90;2.00;;;25.60;1.00;;;25.39;40.07;101339.19;5048878;28;20434;-72
2022/08/02 10:11:00;;;;;;;3.20;1.70;;;25.30;1.00;;;25.57;40.00;101348.75;5042041;28;20433;-71
2022/08/02 10:13:33;;;;;;;2.47;1.70;;;25.30;1.00;;;26.21;39.01;101340.06;5046637;28;20447;-72
2022/08/02 10:16:05;;;;;;;5.07;2.63;;;25.60;1.00;;;26.60;38.42;101339.00;5051161;28;20474;-72
2022/08/02 10:18:34;;;;;;;2.43;1.63;;;26.00;1.00;;;26.90;37.34;101344.16;5048509;28;20550;-72
2022/08/02 10:21:15;;;;;;;4.67;2.90;;;26.20;1.00;;;26.98;37.48;101343.47;5028993;28;20525;-72
2022/08/02 10:23:48;;;;;;;5.30;3.20;;;26.50;1.00;;;27.22;37.00;101344.19;5051243;28;20870;-72
2022/08/02 10:26:20;;;;;;;4.83;2.20;;;26.70;1.00;;;27.29;37.06;101343.00;5048755;28;20435;-72
2022/08/02 10:28:52;;;;;;;3.47;2.63;;;26.70;1.00;;;27.50;36.30;101341.53;5048235;28;20945;-72
2022/08/02 10:31:28;;;;;;;2.57;1.73;;;26.80;1.00;;;27.89;36.05;101343.88;5050112;28;20536;-72
2022/08/02 10:34:01;;;;;;;3.60;1.93;;;27.20;1.00;;;27.78;35.67;101345.22;5042712;28;20558;-71
2022/08/02 10:36:33;;;;;;;4.03;1.77;;;27.20;1.00;;;28.01;35.17;101347.81;5034605;28;20867;-72
2022/08/02 10:39:03;;;;;;;6.83;2.53;;;27.40;1.00;;;27.88;35.52;101342.25;5047471;28;20479;-72
2022/08/02 10:41:44;;;;;;;2.83;1.60;;;27.40;1.00;;;28.22;34.84;101350.22;5058180;22;20489;-71
2022/08/02 10:44:27;;;;;;;2.10;1.77;;;27.50;1.00;;;28.05;34.83;101348.03;5025907;28;20467;-73
2022/08/02 10:47:24;;;;;;;2.57;1.70;;;27.60;1.00;;;28.01;35.06;101338.66;5010973;28;20445;-73
2022/08/02 10:49:55;;;;;;;3.83;1.70;;;27.50;1.00;;;27.99;35.31;101341.72;5009150;28;20440;-72
2022/08/02 10:52:26;;;;;;;2.50;2.30;;;27.50;1.00;;;27.76;35.48;101319.66;5011983;28;20520;-72
2022/08/02 10:54:58;;;;;;;4.67;1.77;;;27.40;1.00;;;27.14;35.81;101319.06;5032052;22;20493;-73
2022/08/02 10:57:29;;;;;;;2.17;1.40;;;27.00;1.00;;;26.10;37.70;101316.28;5047663;28;20528;-72
2022/08/02 11:00:13;;;;;;;4.30;1.97;;;26.20;1.00;;;26.79;36.55;101301.78;5045006;28;20501;-71
2022/08/02 11:02:48;;;;;;;3.03;1.90;;;26.40;1.00;;;27.17;36.58;101296.22;5048300;28;20590;-73
2022/08/02 11:05:30;;;;;;;3.77;1.90;;;26.70;1.00;;;27.49;35.87;101306.53;5043176;28;20869;-71
2022/08/02 11:08:23;;;;;;;3.00;1.73;;;27.00;1.00;;;27.20;36.51;101307.56;5062130;28;20473;-71